createdAt,value
2024-03-15T00:00:15.905Z,12.77
2024-03-15T00:02:46.523Z,11.73
2024-03-15T00:05:15.159Z,11.63
2024-03-15T00:07:43.675Z,12.80
2024-03-15T00:10:12.168Z,12.10
2024-03-15T00:12:40.693Z,12.87
2024-03-15T00:15:10.576Z,12.53
2024-03-15T00:17:39.439Z,12.20
2024-03-15T00:20:09.346Z,10.47
2024-03-15T00:22:38.149Z,11.10
2024-03-15T00:25:08.314Z,10.43
2024-03-15T00:27:36.848Z,13.40
2024-03-15T00:30:08.905Z,16.57
2024-03-15T00:32:37.343Z,14.50
2024-03-15T00:35:06.316Z,13.83
2024-03-15T00:37:34.775Z,13.77
2024-03-15T00:40:03.328Z,14.43
2024-03-15T00:42:32.029Z,12.10
2024-03-15T00:45:01.965Z,13.17
2024-03-15T00:47:31.488Z,10.23
2024-03-15T00:49:59.893Z,10.50
2024-03-15T00:52:28.377Z,12.97
2024-03-15T00:54:57.326Z,14.10
2024-03-15T00:57:25.930Z,12.43
2024-03-15T00:59:54.669Z,12.43
2024-03-15T01:02:23.178Z,14.13
2024-03-15T01:04:52.405Z,12.27
2024-03-15T01:07:21.544Z,11.60
2024-03-15T01:09:50.037Z,12.53
2024-03-15T01:12:18.543Z,13.13
2024-03-15T01:14:47.503Z,11.30
2024-03-15T01:17:18.868Z,11.63
2024-03-15T01:19:47.402Z,11.80
2024-03-15T01:22:16.827Z,12.10
2024-03-15T01:24:45.420Z,12.03
2024-03-15T01:27:13.977Z,11.10
2024-03-15T01:29:45.671Z,11.20
2024-03-15T01:32:14.169Z,11.47
2024-03-15T01:34:42.597Z,12.07
2024-03-15T01:37:11.542Z,13.70
2024-03-15T01:39:40.321Z,12.60
2024-03-15T01:42:08.805Z,11.13
2024-03-15T01:44:48.147Z,12.27
2024-03-15T01:47:16.838Z,14.07
2024-03-15T01:49:47.953Z,10.50
2024-03-15T01:52:16.505Z,9.70
2024-03-15T01:54:45.927Z,12.63
2024-03-15T01:57:14.668Z,10.70
2024-03-15T01:59:43.665Z,11.53
2024-03-15T02:02:14.488Z,10.60
2024-03-15T02:04:42.964Z,10.30
2024-03-15T02:07:11.448Z,10.40
2024-03-15T02:09:39.982Z,11.10
2024-03-15T02:12:10.051Z,11.37
2024-03-15T02:14:38.563Z,10.93
2024-03-15T02:17:08.110Z,11.23
2024-03-15T02:19:36.592Z,11.47
2024-03-15T02:22:05.067Z,10.87
2024-03-15T02:24:33.534Z,14.00
2024-03-15T02:27:02.865Z,10.53
2024-03-15T02:29:31.369Z,12.63
2024-03-15T02:31:59.866Z,13.53
2024-03-15T02:34:28.387Z,9.23
2024-03-15T02:36:59.600Z,11.00
2024-03-15T02:39:28.204Z,10.80
2024-03-15T02:41:57.029Z,10.77
2024-03-15T02:44:25.823Z,10.30
2024-03-15T02:46:54.301Z,11.53
2024-03-15T02:49:22.800Z,10.97
2024-03-15T02:51:53.130Z,13.00
2024-03-15T02:54:21.749Z,11.97
2024-03-15T02:56:50.316Z,10.27
2024-03-15T02:59:20.710Z,11.80
2024-03-15T03:01:52.717Z,13.17
2024-03-15T03:04:21.275Z,11.20
2024-03-15T03:06:49.789Z,10.03
2024-03-15T03:09:19.552Z,11.90
2024-03-15T03:11:48.075Z,10.37
2024-03-15T03:14:16.659Z,12.73
2024-03-15T03:16:46.162Z,10.63
2024-03-15T03:19:18.355Z,11.23
2024-03-15T03:21:47.827Z,14.23
2024-03-15T03:24:16.664Z,10.43
2024-03-15T03:26:45.919Z,11.07
2024-03-15T03:29:14.385Z,11.80
2024-03-15T03:31:43.764Z,12.30
2024-03-15T03:34:12.321Z,10.97
2024-03-15T03:36:40.943Z,13.27
2024-03-15T03:39:11.866Z,10.97
2024-03-15T03:41:43.619Z,12.00
2024-03-15T03:44:12.084Z,11.37
2024-03-15T03:46:39.560Z,12.23
2024-03-15T03:49:08.037Z,10.90
2024-03-15T03:51:36.587Z,12.63
2024-03-15T03:54:08.074Z,12.30
2024-03-15T03:56:40.239Z,10.57
2024-03-15T03:59:09.701Z,11.00
2024-03-15T04:01:39.323Z,11.90
2024-03-15T04:04:08.218Z,12.20
2024-03-15T04:06:37.007Z,10.93
2024-03-15T04:09:05.626Z,13.60
2024-03-15T04:11:34.354Z,13.43
2024-03-15T04:14:04.568Z,15.23
2024-03-15T04:16:33.205Z,15.73
2024-03-15T04:19:02.476Z,19.20
2024-03-15T04:21:31.000Z,18.30
2024-03-15T04:23:59.804Z,13.27
2024-03-15T04:26:29.383Z,14.57
2024-03-15T04:28:58.672Z,14.83
2024-03-15T04:31:27.165Z,13.83
2024-03-15T04:33:56.803Z,13.87
2024-03-15T04:36:27.324Z,15.40
2024-03-15T04:38:55.811Z,13.13
2024-03-15T04:41:24.335Z,11.63
2024-03-15T04:43:52.784Z,13.13
2024-03-15T04:46:21.230Z,13.10
2024-03-15T04:48:50.000Z,13.27
2024-03-15T04:51:19.258Z,14.43
2024-03-15T04:53:47.763Z,12.47
2024-03-15T04:56:16.245Z,15.87
2024-03-15T04:58:45.007Z,12.83
2024-03-15T05:01:15.353Z,12.97
2024-03-15T05:03:44.163Z,15.73
2024-03-15T05:06:20.456Z,14.73
2024-03-15T05:09:00.991Z,16.97
2024-03-15T05:11:33.152Z,18.50
2024-03-15T05:14:01.682Z,15.27
2024-03-15T05:16:30.176Z,20.37
2024-03-15T05:18:58.720Z,23.20
2024-03-15T05:21:27.272Z,29.03
2024-03-15T05:23:55.786Z,21.60
2024-03-15T05:26:24.252Z,16.37
2024-03-15T05:28:52.715Z,14.47
2024-03-15T05:31:28.183Z,12.97
2024-03-15T05:33:56.733Z,12.50
2024-03-15T05:36:25.295Z,11.77
2024-03-15T05:38:53.832Z,11.70
2024-03-15T05:41:22.367Z,11.87
2024-03-15T05:43:51.208Z,12.83
2024-03-15T05:46:19.724Z,11.73
2024-03-15T05:48:48.470Z,11.57
2024-03-15T05:51:17.027Z,13.00
2024-03-15T05:53:48.539Z,14.43
2024-03-15T05:56:17.324Z,13.23
2024-03-15T05:58:45.867Z,13.60
2024-03-15T06:01:13.685Z,10.40
2024-03-15T06:03:42.552Z,12.47
2024-03-15T06:06:11.546Z,10.23
2024-03-15T06:08:40.056Z,14.73
2024-03-15T06:11:08.565Z,15.07
2024-03-15T06:13:37.236Z,15.27
2024-03-15T06:16:06.619Z,13.33
2024-03-15T06:18:38.778Z,19.73
2024-03-15T06:21:09.949Z,15.53
2024-03-15T06:23:38.444Z,16.17
2024-03-15T06:26:07.271Z,15.83
2024-03-15T06:28:38.224Z,20.07
2024-03-15T06:31:09.651Z,18.03
2024-03-15T06:33:38.132Z,14.87
2024-03-15T06:36:06.908Z,17.83
2024-03-15T06:38:52.415Z,16.90
2024-03-15T06:41:31.033Z,18.83
2024-03-15T06:44:20.869Z,16.30
2024-03-15T06:47:16.457Z,17.53
2024-03-15T06:49:55.939Z,18.47
2024-03-15T06:52:35.892Z,19.63
2024-03-15T06:55:04.984Z,16.70
2024-03-15T06:57:34.204Z,15.63
2024-03-15T07:00:09.640Z,18.83
2024-03-15T07:02:41.390Z,14.47
2024-03-15T07:05:09.964Z,20.17
2024-03-15T07:07:39.593Z,15.73
2024-03-15T07:10:09.515Z,14.50
2024-03-15T07:12:40.702Z,17.80
2024-03-15T07:15:10.786Z,13.80
2024-03-15T07:17:40.244Z,15.47
2024-03-15T07:20:10.526Z,15.70
2024-03-15T07:22:39.485Z,16.97
2024-03-15T07:25:11.752Z,18.50
2024-03-15T07:27:42.087Z,17.53
2024-03-15T07:30:15.402Z,15.97
2024-03-15T07:32:43.934Z,15.83
2024-03-15T07:35:12.417Z,15.17
2024-03-15T07:37:41.474Z,15.13
2024-03-15T07:40:11.817Z,14.83
2024-03-15T07:42:40.661Z,14.67
2024-03-15T07:45:11.863Z,15.43
2024-03-15T07:47:40.581Z,13.23
2024-03-15T07:50:13.345Z,14.03
2024-03-15T07:52:41.913Z,15.33
2024-03-15T07:55:11.021Z,14.30
2024-03-15T07:57:39.630Z,14.77
2024-03-15T08:00:10.728Z,13.83
2024-03-15T08:02:39.251Z,14.90
2024-03-15T08:05:07.847Z,15.57
2024-03-15T08:07:36.293Z,15.17
2024-03-15T08:10:06.885Z,14.00
2024-03-15T08:12:35.981Z,13.70
2024-03-15T08:15:08.453Z,16.40
2024-03-15T08:17:38.020Z,14.50
2024-03-15T08:20:10.072Z,14.20
2024-03-15T08:22:41.632Z,16.90
2024-03-15T08:25:11.479Z,13.53
2024-03-15T08:27:43.243Z,14.87
2024-03-15T08:30:14.701Z,14.07
2024-03-15T08:32:43.270Z,13.20
2024-03-15T08:35:15.751Z,12.53
2024-03-15T08:37:45.041Z,12.17
2024-03-15T08:40:15.739Z,12.00
2024-03-15T08:42:46.825Z,12.03
2024-03-15T08:45:16.301Z,12.83
2024-03-15T08:47:55.630Z,11.97
2024-03-15T08:50:34.911Z,11.33
2024-03-15T08:53:05.017Z,11.23
2024-03-15T08:55:35.004Z,11.40
2024-03-15T08:58:04.798Z,10.30
2024-03-15T09:00:33.708Z,9.83
2024-03-15T09:03:02.155Z,8.53
2024-03-15T09:05:30.600Z,8.33
2024-03-15T09:07:59.962Z,8.77
2024-03-15T09:10:28.672Z,8.40
2024-03-15T09:12:57.485Z,7.50
2024-03-15T09:15:27.960Z,8.07
2024-03-15T09:18:00.086Z,8.07
2024-03-15T09:20:34.770Z,8.23
2024-03-15T09:23:04.126Z,7.60
2024-03-15T09:25:32.829Z,8.90
2024-03-15T09:28:01.803Z,8.50
2024-03-15T09:33:05.430Z,6.33
2024-03-15T09:35:33.998Z,8.07
2024-03-15T09:38:02.803Z,6.97
2024-03-15T09:40:31.364Z,10.03
2024-03-15T09:42:59.844Z,7.33
2024-03-15T09:45:28.450Z,7.57
2024-03-15T09:47:57.087Z,7.83
2024-03-15T09:50:26.212Z,7.00
2024-03-15T09:52:54.653Z,6.80
2024-03-15T09:55:23.336Z,6.00
2024-03-15T09:57:51.978Z,6.30
2024-03-15T10:00:26.297Z,5.83
2024-03-15T10:02:55.163Z,5.53
2024-03-15T10:05:23.762Z,5.73
2024-03-15T10:07:52.234Z,5.50
2024-03-15T10:10:20.683Z,7.97
2024-03-15T10:12:49.348Z,6.30
2024-03-15T10:15:18.250Z,5.67
2024-03-15T10:17:47.429Z,5.37
2024-03-15T10:20:19.480Z,5.43
2024-03-15T10:22:49.979Z,6.40
2024-03-15T10:25:20.054Z,4.57
2024-03-15T10:27:50.178Z,4.03
2024-03-15T10:30:21.328Z,3.93
2024-03-15T10:32:50.718Z,4.33
2024-03-15T10:35:20.337Z,3.97
2024-03-15T10:37:49.095Z,4.20
2024-03-15T10:40:17.596Z,3.53
2024-03-15T10:42:47.831Z,3.57
2024-03-15T10:45:16.718Z,3.63
2024-03-15T10:47:45.707Z,5.13
2024-03-15T10:50:14.240Z,3.67
2024-03-15T10:52:43.251Z,3.20
2024-03-15T10:55:18.911Z,3.90
2024-03-15T10:57:47.498Z,3.80
2024-03-15T11:00:17.473Z,4.37
2024-03-15T11:02:46.063Z,4.50
2024-03-15T11:05:17.431Z,3.23
2024-03-15T11:07:45.929Z,5.40
2024-03-15T11:10:16.344Z,4.43
2024-03-15T11:12:44.971Z,4.63
2024-03-15T11:15:14.981Z,3.13
2024-03-15T11:17:44.054Z,4.60
2024-03-15T11:20:14.378Z,4.50
2024-03-15T11:22:42.975Z,4.37
2024-03-15T11:25:19.438Z,3.60
2024-03-15T11:28:00.917Z,2.90
2024-03-15T11:30:29.837Z,3.13
2024-03-15T11:32:58.766Z,4.60
2024-03-15T11:35:27.357Z,3.23
2024-03-15T11:37:57.346Z,2.97
2024-03-15T11:40:27.506Z,3.37
2024-03-15T11:43:05.427Z,3.10
2024-03-15T11:45:38.082Z,3.40
2024-03-15T11:48:16.305Z,5.53
2024-03-15T11:50:46.101Z,2.97
2024-03-15T11:53:15.680Z,3.50
2024-03-15T11:55:44.657Z,4.33
2024-03-15T11:58:15.069Z,3.20
2024-03-15T12:00:43.786Z,3.50
2024-03-15T12:03:13.111Z,2.80
2024-03-15T12:05:43.386Z,3.80
2024-03-15T12:08:14.631Z,2.67
2024-03-15T12:10:43.314Z,2.77
2024-03-15T12:13:18.089Z,4.00
2024-03-15T12:15:47.340Z,2.40
2024-03-15T12:18:16.626Z,2.50
2024-03-15T12:20:45.194Z,3.67
2024-03-15T12:23:14.492Z,3.60
2024-03-15T12:25:42.988Z,2.80
2024-03-15T12:28:13.762Z,2.43
2024-03-15T12:30:42.765Z,3.93
2024-03-15T12:33:11.714Z,4.77
2024-03-15T12:35:40.656Z,3.20
2024-03-15T12:38:09.992Z,3.67
2024-03-15T12:40:43.697Z,2.50
2024-03-15T12:43:14.999Z,3.50
2024-03-15T12:45:43.984Z,3.20
2024-03-15T12:48:13.205Z,2.63
2024-03-15T12:50:42.561Z,3.20
2024-03-15T12:53:13.316Z,4.00
2024-03-15T12:55:42.534Z,5.27
2024-03-15T12:58:11.737Z,5.87
2024-03-15T13:00:40.600Z,2.90
2024-03-15T13:03:11.699Z,3.27
2024-03-15T13:05:40.292Z,3.70
2024-03-15T13:08:08.831Z,4.03
2024-03-15T13:10:40.245Z,3.80
2024-03-15T13:13:08.697Z,2.97
2024-03-15T13:15:37.700Z,2.97
2024-03-15T13:18:08.241Z,2.70
2024-03-15T13:20:36.792Z,3.83
2024-03-15T13:23:06.566Z,2.60
2024-03-15T13:25:38.179Z,3.33
2024-03-15T13:28:09.098Z,4.40
2024-03-15T13:30:39.582Z,4.77
2024-03-15T13:33:11.127Z,2.87
2024-03-15T13:35:42.862Z,2.50
2024-03-15T13:38:15.586Z,3.43
2024-03-15T13:40:45.072Z,2.47
2024-03-15T13:43:13.849Z,3.83
2024-03-15T13:45:42.345Z,4.77
2024-03-15T13:48:13.384Z,2.77
2024-03-15T13:50:43.270Z,2.40
2024-03-15T13:53:12.659Z,3.63
2024-03-15T13:55:41.414Z,3.57
2024-03-15T13:58:09.920Z,3.33
2024-03-15T14:00:41.972Z,3.60
2024-03-15T14:03:11.144Z,2.87
2024-03-15T14:05:40.990Z,2.87
2024-03-15T14:08:10.187Z,3.30
2024-03-15T14:10:38.911Z,2.27
2024-03-15T14:13:07.700Z,2.40
2024-03-15T14:15:36.551Z,2.33
2024-03-15T14:18:06.753Z,3.13
2024-03-15T14:20:36.216Z,4.70
2024-03-15T14:23:04.910Z,2.57
2024-03-15T14:25:34.637Z,2.70
2024-03-15T14:28:06.185Z,6.43
2024-03-15T14:30:35.843Z,4.83
2024-03-15T14:33:08.568Z,3.70
2024-03-15T14:35:37.477Z,2.83
2024-03-15T14:38:09.555Z,4.40
2024-03-15T14:40:40.221Z,2.87
2024-03-15T14:43:12.118Z,4.00
2024-03-15T14:45:41.857Z,12.80
2024-03-15T14:48:15.362Z,6.33
2024-03-15T14:50:45.650Z,3.83
2024-03-15T14:53:17.177Z,2.10
2024-03-15T14:55:46.989Z,2.40
2024-03-15T14:58:16.119Z,6.47
2024-03-15T15:00:49.493Z,3.10
2024-03-15T15:03:18.728Z,3.83
2024-03-15T15:05:47.870Z,3.33
2024-03-15T15:08:16.464Z,3.53
2024-03-15T15:10:44.963Z,2.37
2024-03-15T15:13:13.648Z,7.60
2024-03-15T15:15:43.262Z,2.47
2024-03-15T15:18:13.060Z,3.67
2024-03-15T15:20:43.545Z,6.83
2024-03-15T15:23:12.314Z,2.50
2024-03-15T15:25:42.494Z,6.20
2024-03-15T15:28:11.058Z,1.90
2024-03-15T15:30:39.597Z,7.87
2024-03-15T15:33:09.291Z,6.87
2024-03-15T15:35:38.655Z,6.57
2024-03-15T15:38:08.832Z,2.60
2024-03-15T15:40:39.038Z,3.77
2024-03-15T15:43:08.289Z,2.73
2024-03-15T15:45:38.373Z,2.50
2024-03-15T15:48:09.153Z,2.40
2024-03-15T15:50:38.921Z,3.00
2024-03-15T15:53:07.471Z,2.07
2024-03-15T15:55:37.287Z,8.63
2024-03-15T15:58:06.493Z,2.93
2024-03-15T16:00:35.206Z,8.73
2024-03-15T16:03:04.805Z,1.93
2024-03-15T16:05:34.764Z,4.10
2024-03-15T16:08:05.458Z,1.40
2024-03-15T16:10:35.377Z,1.20
2024-03-15T16:13:03.922Z,1.97
2024-03-15T16:15:32.491Z,2.87
2024-03-15T16:18:01.102Z,2.67
2024-03-15T16:20:29.860Z,2.07
2024-03-15T16:22:59.280Z,1.20
2024-03-15T16:25:27.693Z,2.00
2024-03-15T16:27:56.205Z,2.73
2024-03-15T16:30:25.163Z,1.80
2024-03-15T16:33:01.725Z,2.60
2024-03-15T16:35:32.859Z,2.07
2024-03-15T16:38:01.421Z,1.93
2024-03-15T16:40:30.017Z,1.50
2024-03-15T16:43:00.372Z,1.67
2024-03-15T16:45:29.145Z,1.03
2024-03-15T16:47:57.743Z,1.57
2024-03-15T16:50:26.692Z,1.00
2024-03-15T16:52:55.399Z,1.20
2024-03-15T16:55:24.918Z,1.50
2024-03-15T16:57:53.761Z,1.77
2024-03-15T17:00:23.525Z,1.60
2024-03-15T17:02:53.312Z,1.53
2024-03-15T17:05:21.930Z,2.23
2024-03-15T17:07:52.890Z,1.80
2024-03-15T17:10:22.692Z,2.53
2024-03-15T17:12:51.560Z,4.77
2024-03-15T17:15:20.499Z,2.23
2024-03-15T17:17:49.260Z,2.57
2024-03-15T17:20:20.932Z,3.23
2024-03-15T17:22:49.360Z,2.07
2024-03-15T17:25:18.011Z,2.23
2024-03-15T17:27:46.460Z,2.77
2024-03-15T17:30:18.093Z,2.00
2024-03-15T17:32:46.497Z,2.83
2024-03-15T17:35:15.331Z,3.93
2024-03-15T17:37:45.058Z,3.13
2024-03-15T17:40:13.982Z,4.43
2024-03-15T17:42:42.653Z,3.00
2024-03-15T17:45:11.454Z,3.33
2024-03-15T17:47:40.193Z,3.43
2024-03-15T17:50:09.267Z,3.33
2024-03-15T17:52:39.519Z,1.83
2024-03-15T17:55:11.651Z,2.27
2024-03-15T17:57:40.574Z,2.00
2024-03-15T18:00:13.954Z,2.00
2024-03-15T18:02:42.861Z,2.80
2024-03-15T18:05:12.610Z,2.27
2024-03-15T18:07:41.337Z,4.93
2024-03-15T18:10:10.868Z,4.93
2024-03-15T18:12:40.235Z,3.77
2024-03-15T18:15:14.685Z,2.30
2024-03-15T18:17:43.284Z,5.47
2024-03-15T18:20:11.964Z,12.87
2024-03-15T18:22:40.397Z,8.80
2024-03-15T18:25:09.541Z,8.97
2024-03-15T18:27:38.315Z,3.43
2024-03-15T18:30:08.102Z,6.23
2024-03-15T18:32:37.779Z,21.57
2024-03-15T18:35:06.799Z,4.13
2024-03-15T18:37:35.231Z,4.30
2024-03-15T18:40:03.932Z,3.07
2024-03-15T18:42:32.542Z,3.03
2024-03-15T18:45:01.976Z,3.33
2024-03-15T18:47:31.105Z,3.17
2024-03-15T18:49:59.868Z,3.20
2024-03-15T18:52:28.378Z,2.90
2024-03-15T18:54:58.288Z,2.87
2024-03-15T18:57:27.574Z,2.40
2024-03-15T18:59:59.455Z,2.10
2024-03-15T19:02:28.174Z,2.57
2024-03-15T19:04:56.588Z,1.83
2024-03-15T19:07:25.053Z,1.87
2024-03-15T19:09:53.655Z,2.23
2024-03-15T19:12:22.508Z,3.23
2024-03-15T19:14:51.130Z,5.93
2024-03-15T19:17:19.653Z,7.83
2024-03-15T19:19:51.376Z,7.43
2024-03-15T19:22:20.039Z,7.83
2024-03-15T19:24:48.612Z,8.43
2024-03-15T19:27:17.151Z,10.37
2024-03-15T19:29:45.682Z,6.17
2024-03-15T19:32:14.142Z,7.07
2024-03-15T19:34:42.702Z,5.30
2024-03-15T19:37:11.530Z,3.77
2024-03-15T19:39:40.095Z,2.73
2024-03-15T19:42:09.072Z,2.93
2024-03-15T19:44:37.544Z,3.77
2024-03-15T19:47:08.190Z,5.10
2024-03-15T19:49:36.666Z,5.23
2024-03-15T19:52:05.996Z,5.40
2024-03-15T19:54:34.801Z,4.33
2024-03-15T19:57:04.129Z,3.77
2024-03-15T19:59:33.032Z,3.10
2024-03-15T20:02:04.133Z,5.10
2024-03-15T20:04:32.745Z,2.70
2024-03-15T20:07:01.641Z,3.40
2024-03-15T20:09:30.194Z,2.97
2024-03-15T20:11:58.645Z,2.90
2024-03-15T20:14:27.298Z,2.67
2024-03-15T20:16:55.995Z,3.87
2024-03-15T20:19:25.309Z,2.87
2024-03-15T20:21:54.545Z,2.53
2024-03-15T20:24:23.218Z,2.30
2024-03-15T20:26:51.960Z,3.93
2024-03-15T20:29:20.411Z,2.60
2024-03-15T20:31:48.869Z,2.30
2024-03-15T20:34:17.411Z,3.87
2024-03-15T20:36:45.853Z,3.90
2024-03-15T20:39:15.545Z,3.43
2024-03-15T20:41:44.650Z,4.17
2024-03-15T20:44:13.192Z,3.00
2024-03-15T20:46:41.856Z,3.10
2024-03-15T20:49:12.826Z,3.10
2024-03-15T20:51:41.668Z,3.07
2024-03-15T20:54:10.173Z,2.90
2024-03-15T20:56:38.612Z,3.83
2024-03-15T20:59:07.174Z,4.17
2024-03-15T21:01:35.664Z,3.50
2024-03-15T21:04:04.201Z,3.97
2024-03-15T21:06:34.979Z,5.40
2024-03-15T21:09:06.933Z,3.00
2024-03-15T21:11:35.688Z,3.40
2024-03-15T21:14:06.244Z,3.93
2024-03-15T21:16:34.769Z,2.43
2024-03-15T21:19:07.105Z,3.53
2024-03-15T21:21:37.546Z,2.63
2024-03-15T21:24:06.644Z,2.27
2024-03-15T21:26:35.445Z,2.20
2024-03-15T21:29:03.927Z,3.00
2024-03-15T21:31:32.568Z,2.20
2024-03-15T21:34:01.080Z,2.60
2024-03-15T21:36:29.791Z,2.63
2024-03-15T21:38:58.313Z,2.37
2024-03-15T21:41:26.929Z,3.77
2024-03-15T21:43:55.597Z,3.20
2024-03-15T21:46:33.494Z,3.20
2024-03-15T21:49:02.559Z,3.07
2024-03-15T21:51:30.191Z,4.00
2024-03-15T21:53:58.714Z,3.13
2024-03-15T21:56:29.107Z,3.37
2024-03-15T21:59:00.933Z,3.90
2024-03-15T22:01:31.290Z,3.37
2024-03-15T22:03:59.982Z,4.17
2024-03-15T22:06:28.649Z,2.73
2024-03-15T22:08:57.210Z,3.53
2024-03-15T22:11:25.801Z,3.30
2024-03-15T22:13:54.425Z,3.33
2024-03-15T22:16:22.968Z,3.50
2024-03-15T22:18:51.620Z,6.53
2024-03-15T22:21:20.207Z,5.73
2024-03-15T22:23:48.747Z,4.33
2024-03-15T22:26:18.236Z,4.93
2024-03-15T22:28:47.228Z,5.53
2024-03-15T22:31:16.793Z,4.43
2024-03-15T22:33:45.373Z,5.50
2024-03-15T22:36:13.926Z,5.00
2024-03-15T22:38:42.463Z,4.33
2024-03-15T22:41:10.902Z,4.57
2024-03-15T22:43:39.433Z,3.73
2024-03-15T22:46:07.922Z,3.63
2024-03-15T22:48:36.570Z,4.23
2024-03-15T22:51:05.634Z,3.50
2024-03-15T22:53:34.182Z,3.67
2024-03-15T22:56:02.699Z,4.23
2024-03-15T22:58:32.323Z,4.10
2024-03-15T23:01:06.699Z,4.47
2024-03-15T23:03:36.072Z,3.53
2024-03-15T23:06:05.993Z,2.60
2024-03-15T23:08:34.574Z,4.40
2024-03-15T23:11:03.262Z,4.97
2024-03-15T23:13:33.308Z,3.47
2024-03-15T23:16:01.832Z,3.57
2024-03-15T23:18:30.411Z,3.37
2024-03-15T23:21:00.268Z,4.00
2024-03-15T23:23:28.955Z,3.50
2024-03-15T23:25:58.528Z,3.70
2024-03-15T23:28:27.345Z,4.60
2024-03-15T23:30:57.568Z,3.67
2024-03-15T23:33:27.455Z,3.03
2024-03-15T23:35:56.002Z,3.60
2024-03-15T23:38:24.680Z,3.57
2024-03-15T23:40:53.474Z,3.50
2024-03-15T23:43:22.590Z,4.00
2024-03-15T23:45:52.229Z,4.07
2024-03-15T23:48:27.444Z,4.03
2024-03-15T23:50:56.047Z,4.67
2024-03-15T23:53:24.613Z,4.20
2024-03-15T23:55:53.100Z,4.10
2024-03-15T23:58:21.829Z,4.57
